Time;durP1;ratioP1;P1;durP2;ratioP2;P2;SDS_P1;SDS_P2;PMS_P1;PMS_P2;Temp;Humidity;BMP_temperature;BMP_pressure;BME280_temperature;BME280_humidity;BME280_pressure;Samples;Min_cycle;Max_cycle;Signal;HPM_P1;HPM_P2
2024/02/06 00:01:57;308764.00;1.03;532.98;85343.00;0.28;148.27;;;;;10.70;1.00;;;;;;2267980;61;1260;-86
2024/02/06 00:04:24;305461.00;1.02;527.31;29102.00;0.10;51.03;;;;;10.40;1.00;;;;;;2268136;61;1138;-88
2024/02/06 00:06:52;128541.00;0.43;222.81;0.00;0.00;0.62;;;;;10.60;1.00;;;;;;2268045;61;992;-89
2024/02/06 00:11:48;271448.00;0.90;468.83;0.00;0.00;0.62;;;;;11.00;1.00;;;;;;2273973;61;1353;-89
2024/02/06 00:14:15;84244.00;0.28;146.37;0.00;0.00;0.62;;;;;11.60;1.00;;;;;;2272131;61;2002;-89
2024/02/06 00:16:42;160697.00;0.54;278.24;17149.00;0.06;30.33;;;;;12.00;1.00;;;;;;2271868;61;1592;-88
2024/02/06 00:19:09;120536.00;0.40;209.01;0.00;0.00;0.62;;;;;12.10;1.00;;;;;;2271976;61;1012;-88
2024/02/06 00:21:36;237410.00;0.79;410.30;0.00;0.00;0.62;;;;;12.30;1.00;;;;;;2271969;61;889;-87
2024/02/06 00:24:05;147536.00;0.49;255.56;0.00;0.00;0.62;;;;;12.70;1.00;;;;;;2271909;61;1702;-88
2024/02/06 00:26:32;272538.00;0.91;470.71;8061.00;0.03;14.59;;;;;12.80;1.00;;;;;;2272077;61;950;-88
2024/02/06 00:28:59;70182.00;0.23;122.07;0.00;0.00;0.62;;;;;12.00;1.00;;;;;;2271978;61;1069;-89
2024/02/06 00:31:26;35012.00;0.12;61.26;0.00;0.00;0.62;;;;;12.10;1.00;;;;;;2271971;61;1735;-87
2024/02/06 00:33:53;279645.00;0.93;482.93;33047.00;0.11;57.86;;;;;12.30;1.00;;;;;;2271983;61;1915;-88
2024/02/06 00:36:20;7339.00;0.02;13.34;0.00;0.00;0.62;;;;;12.50;1.00;;;;;;2271989;61;1079;-90
2024/02/06 00:38:45;90508.00;0.30;157.18;0.00;0.00;0.62;;;;;12.50;1.00;;;;;;2271973;61;1116;-88
2024/02/06 00:41:14;539873.00;1.80;930.50;35368.00;0.12;61.87;;;;;12.20;1.00;;;;;;2272018;61;993;-89
2024/02/06 00:43:41;122068.00;0.41;211.65;0.00;0.00;0.62;;;;;12.10;1.00;;;;;;2272074;61;1392;-87
2024/02/06 00:46:08;281476.00;0.94;486.08;0.00;0.00;0.62;;;;;12.10;1.00;;;;;;2271911;61;1696;-89
2024/02/06 00:51:10;217483.00;0.72;376.01;0.00;0.00;0.62;;;;;12.40;1.00;;;;;;835063;60;1730;-87
2024/02/06 00:53:37;42007.00;0.14;73.36;0.00;0.00;0.62;;;;;11.50;1.00;;;;;;2268595;61;2006;-89
2024/02/06 00:56:06;51176.00;0.17;89.22;0.00;0.00;0.62;;;;;10.90;1.00;;;;;;2268675;61;1029;-87
2024/02/06 00:58:34;205891.00;0.69;356.06;0.00;0.00;0.62;;;;;10.10;1.00;;;;;;2268649;61;791;-91
2024/02/06 01:01:01;223406.00;0.74;386.20;0.00;0.00;0.62;;;;;10.00;1.00;;;;;;2268643;61;1115;-88
2024/02/06 01:03:28;193347.00;0.64;334.47;0.00;0.00;0.62;;;;;9.20;1.00;;;;;;2267791;61;1284;-89
2024/02/06 01:05:55;446610.00;1.49;769.95;57748.00;0.19;100.58;;;;;8.70;1.00;;;;;;2268052;61;919;-87
2024/02/06 01:08:22;253357.00;0.84;437.72;0.00;0.00;0.62;;;;;8.80;1.00;;;;;;2267685;61;1706;-89
2024/02/06 01:10:49;257760.00;0.86;445.30;0.00;0.00;0.62;;;;;8.30;1.00;;;;;;2292840;40;3635;-89
2024/02/06 01:13:16;509489.00;1.70;878.16;49702.00;0.17;86.67;;;;;7.60;1.00;;;;;;2271903;61;2010;-89
2024/02/06 01:15:44;272918.00;0.91;471.36;50652.00;0.17;88.31;;;;;7.10;1.00;;;;;;2313830;41;3600;-87
2024/02/06 01:18:11;266931.00;0.89;461.07;52954.00;0.18;92.29;;;;;6.80;1.00;;;;;;2271723;61;1067;-89
2024/02/06 01:20:38;498380.00;1.66;859.03;0.00;0.00;0.62;;;;;6.90;1.00;;;;;;2271952;61;1032;-90
2024/02/06 01:23:05;379117.00;1.26;653.91;0.00;0.00;0.62;;;;;6.60;1.00;;;;;;2271794;61;1663;-87
2024/02/06 01:25:32;147909.00;0.49;256.20;0.00;0.00;0.62;;;;;6.40;1.00;;;;;;2271855;61;1179;-88
2024/02/06 01:27:59;310466.00;1.03;535.91;50854.00;0.17;88.66;;;;;6.40;1.00;;;;;;2271964;61;1067;-88
2024/02/06 01:30:26;212772.00;0.71;367.91;0.00;0.00;0.62;;;;;6.20;1.00;;;;;;2271930;61;971;-88
2024/02/06 01:32:54;111715.00;0.37;193.79;0.00;0.00;0.62;;;;;6.00;2.30;;;;;;2271774;61;1913;-86
2024/02/06 01:35:22;364525.00;1.22;628.83;19749.00;0.07;34.84;;;;;6.20;1.00;;;;;;2271928;61;1607;-86
2024/02/06 01:37:48;115945.00;0.39;201.09;0.00;0.00;0.62;;;;;6.90;5.40;;;;;;2271697;61;1051;-87
2024/02/06 01:40:17;119440.00;0.40;207.12;0.00;0.00;0.62;;;;;8.10;1.20;;;;;;2271827;61;912;-88
2024/02/06 01:42:44;41987.00;0.14;73.33;0.00;0.00;0.62;;;;;8.80;1.00;;;;;;2271830;61;1498;-88
2024/02/06 01:45:11;38370.00;0.13;67.07;0.00;0.00;0.62;;;;;8.30;1.00;;;;;;2271744;61;1586;-89
2024/02/06 01:47:39;86108.00;0.29;149.59;0.00;0.00;0.62;;;;;8.40;1.00;;;;;;2271710;61;1087;-87
2024/02/06 01:50:09;117331.00;0.39;203.48;0.00;0.00;0.62;;;;;8.60;1.00;;;;;;2271755;61;1590;-89
2024/02/06 01:52:36;258930.00;0.86;447.31;24541.00;0.08;43.13;;;;;8.40;1.00;;;;;;2271677;61;1442;-88
2024/02/06 01:55:04;177472.00;0.59;307.14;0.00;0.00;0.62;;;;;8.00;1.00;;;;;;2271738;61;2009;-88
2024/02/06 01:57:32;224074.00;0.75;387.35;0.00;0.00;0.62;;;;;7.80;1.00;;;;;;2271763;61;893;-89
2024/02/06 02:00:00;112280.00;0.37;194.76;0.00;0.00;0.62;;;;;7.90;1.00;;;;;;2271673;61;1633;-88
2024/02/06 02:02:27;257246.00;0.86;444.41;0.00;0.00;0.62;;;;;8.50;1.00;;;;;;2271636;61;1343;-88
2024/02/06 02:04:54;223259.00;0.74;385.95;0.00;0.00;0.62;;;;;8.80;1.00;;;;;;2271702;61;2083;-87
2024/02/06 02:07:23;314462.00;1.05;542.78;39526.00;0.13;69.07;;;;;9.10;1.00;;;;;;2271666;61;1083;-88
2024/02/06 02:09:50;60838.00;0.20;105.93;0.00;0.00;0.62;;;;;9.40;1.00;;;;;;2271682;61;1582;-88
2024/02/06 02:12:17;181564.00;0.61;314.18;0.00;0.00;0.62;;;;;9.70;1.00;;;;;;2271497;61;1668;-87
2024/02/06 02:14:44;124700.00;0.42;216.19;0.00;0.00;0.62;;;;;9.80;1.00;;;;;;2271555;61;1998;-87
2024/02/06 02:17:11;272022.00;0.91;469.82;43023.00;0.14;75.12;;;;;9.10;1.00;;;;;;2271775;61;919;-89
2024/02/06 02:19:37;118876.00;0.40;206.14;0.00;0.00;0.62;;;;;8.80;1.00;;;;;;2271759;61;1277;-87
2024/02/06 02:22:06;155369.00;0.52;269.06;0.00;0.00;0.62;;;;;9.50;1.00;;;;;;2271805;61;1354;-89
2024/02/06 02:24:33;84788.00;0.28;147.31;0.00;0.00;0.62;;;;;9.60;1.00;;;;;;2271706;61;2088;-87
2024/02/06 02:27:01;69915.00;0.23;121.61;0.00;0.00;0.62;;;;;10.10;1.00;;;;;;2271846;61;1019;-86
2024/02/06 02:29:29;137472.00;0.46;238.21;0.00;0.00;0.62;;;;;10.10;1.00;;;;;;2271774;61;1550;-88
2024/02/06 02:31:58;54741.00;0.18;95.38;0.00;0.00;0.62;;;;;10.20;1.00;;;;;;2272368;61;1656;-86
2024/02/06 02:34:24;228838.00;0.76;395.55;0.00;0.00;0.62;;;;;9.60;1.00;;;;;;2272428;61;2004;-87
2024/02/06 02:36:51;254761.00;0.85;440.14;0.00;0.00;0.62;;;;;9.30;1.00;;;;;;2272412;61;2322;-87
2024/02/06 02:39:20;275572.00;0.92;475.92;0.00;0.00;0.62;;;;;9.50;1.00;;;;;;2272312;61;1591;-88
2024/02/06 02:41:46;304803.00;1.02;526.18;0.00;0.00;0.62;;;;;8.80;1.00;;;;;;2272315;61;1474;-89
2024/02/06 02:44:13;133266.00;0.44;230.96;0.00;0.00;0.62;;;;;8.50;1.00;;;;;;2272483;61;916;-87
2024/02/06 02:46:40;100539.00;0.34;174.50;21915.00;0.07;38.59;;;;;9.30;1.00;;;;;;2272334;61;1718;-88
2024/02/06 02:49:07;129111.00;0.43;223.80;0.00;0.00;0.62;;;;;9.30;1.00;;;;;;2272458;61;1253;-89
2024/02/06 02:51:34;13355.00;0.04;23.76;0.00;0.00;0.62;;;;;7.60;1.00;;;;;;2272390;61;968;-89
2024/02/06 02:54:01;301936.00;1.01;521.25;42987.00;0.14;75.06;;;;;8.00;1.00;;;;;;2272454;61;2004;-89
2024/02/06 02:56:29;37844.00;0.13;66.16;0.00;0.00;0.62;;;;;8.00;1.00;;;;;;2272389;61;910;-88
2024/02/06 02:58:56;44417.00;0.15;77.53;0.00;0.00;0.62;;;;;7.10;1.00;;;;;;2272281;61;1570;-88
2024/02/06 03:01:23;19165.00;0.06;33.82;0.00;0.00;0.62;;;;;6.80;1.00;;;;;;2272370;61;1706;-88
2024/02/06 03:03:50;162303.00;0.54;281.01;0.00;0.00;0.62;;;;;7.20;2.00;;;;;;2272338;61;1270;-86
2024/02/06 03:06:20;226074.00;0.75;390.79;2291.00;0.01;4.59;;;;;7.70;1.00;;;;;;2272346;61;2148;-88
2024/02/06 03:08:47;123335.00;0.41;213.83;0.00;0.00;0.62;;;;;6.90;1.00;;;;;;2272451;61;966;-89
2024/02/06 03:11:14;58287.00;0.19;101.52;0.00;0.00;0.62;;;;;6.20;2.30;;;;;;2272397;61;1052;-89
2024/02/06 03:13:43;69556.00;0.23;120.99;0.00;0.00;0.62;;;;;6.50;3.80;;;;;;2272272;61;1914;-89
2024/02/06 03:16:10;231829.00;0.77;400.70;0.00;0.00;0.62;;;;;7.10;1.80;;;;;;2272330;61;1584;-90
2024/02/06 03:18:37;134211.00;0.45;232.59;0.00;0.00;0.62;;;;;7.20;1.00;;;;;;2272267;61;1656;-88
2024/02/06 03:21:04;265.00;0.00;1.08;0.00;0.00;0.62;;;;;7.20;2.20;;;;;;2272336;61;1715;-87
2024/02/06 03:23:31;44319.00;0.15;77.36;0.00;0.00;0.62;;;;;7.30;1.00;;;;;;2272281;61;1719;-88
2024/02/06 03:25:58;570042.00;1.90;982.52;31224.00;0.10;54.70;;;;;7.00;3.70;;;;;;2272325;61;906;-88
2024/02/06 03:28:25;42894.00;0.14;74.90;0.00;0.00;0.62;;;;;7.80;1.00;;;;;;2272226;61;1931;-88
2024/02/06 03:30:53;226003.00;0.75;390.67;44713.00;0.15;78.04;;;;;8.00;1.00;;;;;;2272415;61;981;-89
2024/02/06 03:33:20;71034.00;0.24;123.55;0.00;0.00;0.62;;;;;8.10;1.00;;;;;;2272299;61;1376;-86
2024/02/06 03:35:47;131890.00;0.44;228.59;0.00;0.00;0.62;;;;;7.10;1.00;;;;;;2272241;61;1944;-87
2024/02/06 03:38:14;110723.00;0.37;192.08;0.00;0.00;0.62;;;;;6.70;3.00;;;;;;2272169;61;2205;-88
2024/02/06 03:40:41;206034.00;0.69;356.31;60641.00;0.20;105.58;;;;;6.60;3.40;;;;;;2272303;61;1098;-88
2024/02/06 03:43:08;238829.00;0.80;412.74;30119.00;0.10;52.79;;;;;6.40;4.50;;;;;;2271955;61;1711;-88
2024/02/06 03:45:35;104853.00;0.35;181.95;0.00;0.00;0.62;;;;;6.10;6.90;;;;;;2272166;61;1075;-88
2024/02/06 03:48:03;120159.00;0.40;208.36;20769.00;0.07;36.60;;;;;6.50;6.30;;;;;;2272233;61;1153;-89
2024/02/06 03:50:30;103414.00;0.34;179.46;0.00;0.00;0.62;;;;;7.10;6.10;;;;;;2272212;61;1058;-89
2024/02/06 03:52:57;180110.00;0.60;311.68;20559.00;0.07;36.24;;;;;7.60;1.00;;;;;;2272271;61;1380;-88
2024/02/06 03:55:24;334633.00;1.12;577.45;10416.00;0.03;18.67;;;;;7.70;1.00;;;;;;2272216;61;1964;-85
2024/02/06 03:57:51;346539.00;1.16;597.91;19696.00;0.07;34.74;;;;;8.30;1.00;;;;;;2272254;61;1092;-87
2024/02/06 04:02:51;108717.00;0.36;188.62;0.00;0.00;0.62;;;;;8.90;1.00;;;;;;2265547;61;1316;-87
2024/02/06 04:05:20;209191.00;0.70;361.74;34192.00;0.11;59.84;;;;;9.40;1.00;;;;;;2263992;61;1135;-87
2024/02/06 04:07:46;322626.00;1.08;556.81;11784.00;0.04;21.04;;;;;9.60;1.00;;;;;;2264044;61;1784;-88
2024/02/06 04:10:14;72069.00;0.24;125.34;0.00;0.00;0.62;;;;;9.40;1.00;;;;;;2263960;61;1598;-86
2024/02/06 04:12:40;12675.00;0.04;22.58;0.00;0.00;0.62;;;;;9.00;1.00;;;;;;2263998;61;1301;-87
2024/02/06 04:15:09;200337.00;0.67;346.50;0.00;0.00;0.62;;;;;9.00;1.00;;;;;;2264031;61;2001;-88
2024/02/06 04:17:36;80926.00;0.27;140.64;0.00;0.00;0.62;;;;;8.70;1.00;;;;;;2264139;61;1061;-87
2024/02/06 04:20:04;113136.00;0.38;196.24;0.00;0.00;0.62;;;;;8.90;1.00;;;;;;2263923;61;1657;-87
2024/02/06 04:22:32;327715.00;1.09;565.56;26815.00;0.09;47.07;;;;;8.90;1.00;;;;;;2263979;61;1317;-86
2024/02/06 04:24:59;267715.00;0.89;462.41;11946.00;0.04;21.32;;;;;8.90;1.00;;;;;;2264001;61;1706;-87
2024/02/06 04:27:26;256011.00;0.85;442.29;0.00;0.00;0.62;;;;;9.10;1.00;;;;;;2264001;61;1016;-88
2024/02/06 04:29:52;225752.00;0.75;390.24;9567.00;0.03;17.20;;;;;8.90;1.00;;;;;;2263976;61;1535;-86
2024/02/06 04:32:20;65001.00;0.22;113.12;0.00;0.00;0.62;;;;;9.20;1.00;;;;;;2263969;61;2240;-87
2024/02/06 04:34:49;263325.00;0.88;454.87;45136.00;0.15;78.77;;;;;9.20;1.00;;;;;;2263987;61;1990;-87
2024/02/06 04:37:16;149695.00;0.50;259.28;0.00;0.00;0.62;;;;;9.60;1.00;;;;;;2263917;61;1073;-86
2024/02/06 04:39:44;131464.00;0.44;227.85;0.00;0.00;0.62;;;;;9.60;1.00;;;;;;2263894;61;1041;-86
2024/02/06 04:42:11;132694.00;0.44;229.97;0.00;0.00;0.62;;;;;9.30;1.00;;;;;;2263787;61;1380;-88
2024/02/06 04:44:38;131757.00;0.44;228.36;20463.00;0.07;36.07;;;;;8.90;1.00;;;;;;2264055;61;901;-87
2024/02/06 04:47:05;241491.00;0.80;417.32;0.00;0.00;0.62;;;;;8.40;1.00;;;;;;2263922;61;945;-87
2024/02/06 04:49:32;142877.00;0.48;247.53;21350.00;0.07;37.61;;;;;8.60;1.00;;;;;;2263995;61;1080;-87
2024/02/06 04:51:59;354304.00;1.18;611.26;3521.00;0.01;6.72;;;;;9.00;1.00;;;;;;2263915;61;1341;-87
2024/02/06 04:54:26;262791.00;0.88;453.95;0.00;0.00;0.62;;;;;9.10;1.00;;;;;;2263579;61;1927;-86
2024/02/06 04:56:54;0.00;0.00;0.62;0.00;0.00;0.62;;;;;9.30;1.00;;;;;;2263833;61;1030;-86
2024/02/06 04:59:21;341692.00;1.14;589.58;73754.00;0.25;128.25;;;;;9.40;1.00;;;;;;2264007;61;1005;-86
2024/02/06 05:01:48;290005.00;0.97;500.74;41732.00;0.14;72.88;;;;;9.90;1.00;;;;;;2263771;61;1280;-87
2024/02/06 05:04:14;257035.00;0.86;444.05;29075.00;0.10;50.98;;;;;9.60;1.00;;;;;;2264092;61;1046;-89
2024/02/06 05:06:41;164735.00;0.55;285.20;0.00;0.00;0.62;;;;;9.90;1.00;;;;;;2264067;61;956;-88
2024/02/06 05:09:08;60365.00;0.20;105.11;0.00;0.00;0.62;;;;;9.50;1.00;;;;;;2263976;61;1689;-86
2024/02/06 05:11:35;204553.00;0.68;353.76;27061.00;0.09;47.50;;;;;9.60;1.00;;;;;;2263955;61;1129;-87
2024/02/06 05:14:03;15313.00;0.05;27.15;0.00;0.00;0.62;;;;;9.70;1.00;;;;;;2263838;61;1998;-85
2024/02/06 05:16:30;85565.00;0.29;148.65;0.00;0.00;0.62;;;;;9.80;1.00;;;;;;2263975;61;986;-90
2024/02/06 05:18:57;110852.00;0.37;192.30;0.00;0.00;0.62;;;;;9.90;1.00;;;;;;2264049;61;938;-87
2024/02/06 05:21:24;133803.00;0.45;231.89;0.00;0.00;0.62;;;;;9.60;1.00;;;;;;2263919;61;1580;-87
2024/02/06 05:23:51;322888.00;1.08;557.26;42500.00;0.14;74.21;;;;;9.70;1.00;;;;;;2263976;61;1299;-87
2024/02/06 05:26:17;225922.00;0.75;390.53;27485.00;0.09;48.23;;;;;9.30;1.00;;;;;;2263958;61;1824;-86
2024/02/06 05:28:44;70089.00;0.23;121.91;0.00;0.00;0.62;;;;;9.00;1.00;;;;;;2264004;61;1008;-87
2024/02/06 05:31:13;51216.00;0.17;89.29;0.00;0.00;0.62;;;;;9.40;1.00;;;;;;2263935;61;1541;-87
2024/02/06 05:33:40;111569.00;0.37;193.54;0.00;0.00;0.62;;;;;9.70;1.00;;;;;;2263924;61;1653;-88
2024/02/06 05:36:08;67953.00;0.23;118.22;0.00;0.00;0.62;;;;;9.70;1.00;;;;;;2263849;61;1955;-86
2024/02/06 05:38:35;48450.00;0.16;84.51;0.00;0.00;0.62;;;;;9.90;1.00;;;;;;2263960;61;1123;-88
2024/02/06 05:41:02;17086.00;0.06;30.22;0.00;0.00;0.62;;;;;10.20;1.00;;;;;;2263847;61;1739;-87
2024/02/06 05:43:29;99383.00;0.33;172.51;0.00;0.00;0.62;;;;;10.00;1.00;;;;;;2263830;61;1354;-87
2024/02/06 05:45:56;95078.00;0.32;165.08;0.00;0.00;0.62;;;;;9.40;1.00;;;;;;2263875;61;1679;-87
2024/02/06 05:48:25;33761.00;0.11;59.09;0.00;0.00;0.62;;;;;9.30;1.00;;;;;;2263883;61;1070;-87
2024/02/06 05:50:52;121445.00;0.40;210.57;0.00;0.00;0.62;;;;;9.60;1.00;;;;;;2263839;61;1112;-86
2024/02/06 05:53:18;41829.00;0.14;73.05;0.00;0.00;0.62;;;;;9.80;1.00;;;;;;2263902;61;1274;-87
2024/02/06 05:55:45;27231.00;0.09;47.79;0.00;0.00;0.62;;;;;10.30;1.00;;;;;;2263840;61;1995;-86
2024/02/06 05:58:12;125775.00;0.42;218.04;19795.00;0.07;34.92;;;;;10.60;1.00;;;;;;2263858;61;1072;-87
2024/02/06 06:00:39;2313.00;0.01;4.63;0.00;0.00;0.62;;;;;10.80;1.00;;;;;;2263736;61;1077;-86
2024/02/06 06:03:06;20883.00;0.07;36.80;0.00;0.00;0.62;;;;;10.60;1.00;;;;;;2263847;61;1731;-85
2024/02/06 06:05:36;261146.00;0.87;451.12;38628.00;0.13;67.51;;;;;10.60;1.00;;;;;;2264236;61;1104;-87
2024/02/06 06:08:03;206726.00;0.69;357.50;18760.00;0.06;33.12;;;;;10.30;1.00;;;;;;2264583;61;1153;-87
2024/02/06 06:10:30;44064.00;0.15;76.92;0.00;0.00;0.62;;;;;10.00;1.00;;;;;;2264119;61;900;-86
2024/02/06 06:12:57;39655.00;0.13;69.29;0.00;0.00;0.62;;;;;9.80;1.00;;;;;;2264549;61;1384;-87
2024/02/06 06:15:24;78745.00;0.26;136.87;0.00;0.00;0.62;;;;;9.80;1.00;;;;;;2264537;61;1928;-86
2024/02/06 06:17:51;99645.00;0.33;172.96;0.00;0.00;0.62;;;;;10.00;1.00;;;;;;2264492;61;1116;-88
2024/02/06 06:20:18;92825.00;0.31;161.19;0.00;0.00;0.62;;;;;9.70;1.00;;;;;;2264575;61;1035;-87
2024/02/06 06:22:46;285548.00;0.95;493.08;8077.00;0.03;14.62;;;;;9.60;1.00;;;;;;2264504;61;1319;-87
2024/02/06 06:25:13;411972.00;1.37;710.39;151434.00;0.50;262.28;;;;;9.60;1.00;;;;;;2264470;61;966;-87
2024/02/06 06:27:42;48158.00;0.16;84.00;0.00;0.00;0.62;;;;;9.50;1.00;;;;;;2264464;61;1119;-88
2024/02/06 06:30:10;43157.00;0.14;75.35;0.00;0.00;0.62;;;;;9.50;1.00;;;;;;2264556;61;1165;-88
2024/02/06 06:32:37;374421.00;1.25;645.84;0.00;0.00;0.62;;;;;9.60;1.00;;;;;;2264500;61;1387;-86
2024/02/06 06:35:04;210458.00;0.70;363.92;17115.00;0.06;30.27;;;;;9.60;1.00;;;;;;2264507;61;1918;-88
2024/02/06 06:37:32;162972.00;0.54;282.16;40022.00;0.13;69.93;;;;;9.80;1.00;;;;;;2264405;61;1099;-87
2024/02/06 06:40:01;126449.00;0.42;219.21;0.00;0.00;0.62;;;;;9.40;1.00;;;;;;2264527;61;1120;-87
2024/02/06 06:42:28;94955.00;0.32;164.86;0.00;0.00;0.62;;;;;9.70;1.00;;;;;;2264334;61;1277;-86
2024/02/06 06:44:55;216097.00;0.72;373.63;16671.00;0.06;29.50;;;;;9.90;1.00;;;;;;2264422;61;1647;-85
2024/02/06 06:47:22;116635.00;0.39;202.28;6076.00;0.02;11.15;;;;;9.60;1.00;;;;;;2264456;61;950;-86
2024/02/06 06:49:48;304437.00;1.01;525.55;32634.00;0.11;57.14;;;;;9.80;1.00;;;;;;2264440;61;1014;-86
2024/02/06 06:52:15;406625.00;1.36;701.19;79661.00;0.27;138.45;;;;;9.60;1.00;;;;;;2264419;61;1340;-86
2024/02/06 06:54:42;133376.00;0.44;231.15;0.00;0.00;0.62;;;;;9.70;1.00;;;;;;2264405;61;2001;-86
2024/02/06 06:57:10;67734.00;0.23;117.84;0.00;0.00;0.62;;;;;9.40;1.00;;;;;;2264329;61;1166;-86
2024/02/06 06:59:37;99482.00;0.33;172.68;0.00;0.00;0.62;;;;;9.30;1.00;;;;;;2264413;61;1076;-88
2024/02/06 07:02:05;281007.00;0.94;485.27;39005.00;0.13;68.17;;;;;9.30;1.00;;;;;;2264233;61;1290;-88
2024/02/06 07:04:31;54154.00;0.18;94.37;0.00;0.00;0.62;;;;;8.90;1.00;;;;;;2264427;61;1093;-87
2024/02/06 07:06:58;127168.00;0.42;220.45;0.00;0.00;0.62;;;;;8.50;1.00;;;;;;2264287;61;1065;-86
2024/02/06 07:09:26;134975.00;0.45;233.91;0.00;0.00;0.62;;;;;8.70;1.00;;;;;;2264443;61;1077;-86
2024/02/06 07:11:53;145785.00;0.49;252.54;0.00;0.00;0.62;;;;;9.10;1.00;;;;;;2264383;61;1297;-88
2024/02/06 07:14:22;414494.00;1.38;714.72;84917.00;0.28;147.53;;;;;9.30;1.00;;;;;;2264421;61;1123;-86
2024/02/06 07:16:48;22123.00;0.07;38.95;0.00;0.00;0.62;;;;;9.30;1.00;;;;;;2264161;61;1928;-87
2024/02/06 07:19:15;86145.00;0.29;149.65;0.00;0.00;0.62;;;;;9.50;1.00;;;;;;2264379;61;1092;-86
2024/02/06 07:21:53;80289.00;0.27;139.54;0.00;0.00;0.62;;;;;9.60;1.00;;;;;;2264341;61;1124;-88
2024/02/06 07:24:20;96378.00;0.32;167.32;14893.00;0.05;26.43;;;;;9.60;1.00;;;;;;2264270;61;1127;-88
2024/02/06 07:26:46;138212.00;0.46;239.49;0.00;0.00;0.62;;;;;9.30;1.00;;;;;;2264338;61;1630;-89
2024/02/06 07:29:13;176438.00;0.59;305.36;18675.00;0.06;32.98;;;;;9.20;1.00;;;;;;2264329;61;1561;-87
2024/02/06 07:31:42;435389.00;1.45;750.65;43193.00;0.14;75.41;;;;;8.90;1.00;;;;;;2264236;61;1492;-88
2024/02/06 07:34:08;279450.00;0.93;482.59;45312.00;0.15;79.08;;;;;9.10;1.00;;;;;;2264208;61;1168;-88
2024/02/06 07:36:35;182464.00;0.61;315.73;27000.00;0.09;47.39;;;;;9.10;1.00;;;;;;2264248;61;1940;-88
2024/02/06 07:39:02;252177.00;0.84;435.70;57005.00;0.19;99.30;;;;;9.30;1.00;;;;;;2264296;61;1060;-87
2024/02/06 07:41:29;258531.00;0.86;446.62;0.00;0.00;0.62;;;;;9.30;1.00;;;;;;2264373;61;965;-87
2024/02/06 07:43:57;208752.00;0.70;360.99;0.00;0.00;0.62;;;;;9.40;1.00;;;;;;2264261;61;1357;-87
2024/02/06 07:46:24;130172.00;0.43;225.63;1483.00;0.00;3.19;;;;;9.30;1.00;;;;;;2264256;61;1184;-89
2024/02/06 07:48:54;110480.00;0.37;191.66;0.00;0.00;0.62;;;;;9.60;1.00;;;;;;2264228;61;969;-87
2024/02/06 07:51:23;94411.00;0.31;163.92;3038.00;0.01;5.89;;;;;9.40;1.00;;;;;;2264354;61;1111;-88
2024/02/06 07:53:51;291337.00;0.97;503.03;29750.00;0.10;52.15;;;;;9.70;1.00;;;;;;2264249;61;1321;-87
2024/02/06 07:56:19;166809.00;0.56;288.77;0.00;0.00;0.62;;;;;9.60;1.00;;;;;;2264200;61;1994;-87
2024/02/06 07:58:46;200521.00;0.67;346.82;0.00;0.00;0.62;;;;;10.00;1.00;;;;;;2264139;61;1243;-88
2024/02/06 08:01:13;32825.00;0.11;57.47;0.00;0.00;0.62;;;;;9.90;1.00;;;;;;2264039;61;1027;-87
2024/02/06 08:03:40;221314.00;0.74;382.60;0.00;0.00;0.62;;;;;9.30;1.00;;;;;;2263897;61;1551;-87
2024/02/06 08:06:09;157130.00;0.52;272.09;0.00;0.00;0.62;;;;;9.60;1.00;;;;;;2264014;61;1191;-88
2024/02/06 08:08:36;42228.00;0.14;73.74;0.00;0.00;0.62;;;;;9.70;1.00;;;;;;2264063;61;940;-89
2024/02/06 08:11:03;15916.00;0.05;28.20;0.00;0.00;0.62;;;;;9.90;1.00;;;;;;2264132;61;890;-88
2024/02/06 08:13:29;138853.00;0.46;240.59;0.00;0.00;0.62;;;;;9.80;1.00;;;;;;2264110;61;1524;-87
2024/02/06 08:15:56;139522.00;0.47;241.75;0.00;0.00;0.62;;;;;9.70;1.00;;;;;;2264132;61;1998;-88
2024/02/06 08:18:24;216886.00;0.72;374.99;21283.00;0.07;37.49;;;;;9.70;1.00;;;;;;2264185;61;915;-88
2024/02/06 08:20:51;92824.00;0.31;161.18;0.00;0.00;0.62;;;;;9.30;1.00;;;;;;2264179;61;1598;-87
2024/02/06 08:23:19;98992.00;0.33;171.83;0.00;0.00;0.62;;;;;9.20;1.00;;;;;;2264207;61;1366;-87
2024/02/06 08:25:46;394701.00;1.32;680.70;139072.00;0.46;240.97;;;;;9.30;1.00;;;;;;2264153;61;1494;-88
2024/02/06 08:28:13;231000.00;0.77;399.27;0.00;0.00;0.62;;;;;9.20;1.00;;;;;;2264203;61;1059;-88
2024/02/06 08:30:39;221762.00;0.74;383.38;61381.00;0.20;106.86;;;;;9.20;1.00;;;;;;2264163;61;1045;-90
2024/02/06 08:33:06;196925.00;0.66;340.63;0.00;0.00;0.62;;;;;9.20;1.00;;;;;;2264129;61;1254;-88
2024/02/06 08:35:33;61018.00;0.20;106.24;0.00;0.00;0.62;;;;;9.30;1.00;;;;;;2264067;61;1911;-88
2024/02/06 08:38:01;93034.00;0.31;161.55;0.00;0.00;0.62;;;;;9.40;1.00;;;;;;2264206;61;1088;-87
2024/02/06 08:40:29;175938.00;0.59;304.49;38099.00;0.13;66.60;;;;;10.00;1.00;;;;;;2264058;61;1520;-87
2024/02/06 08:42:56;257002.00;0.86;443.99;15499.00;0.05;27.47;;;;;10.30;1.00;;;;;;2264095;61;1430;-88
2024/02/06 08:45:23;177135.00;0.59;306.56;0.00;0.00;0.62;;;;;10.00;1.00;;;;;;2264154;61;1178;-88
2024/02/06 08:47:50;67844.00;0.23;118.03;0.00;0.00;0.62;;;;;9.80;1.00;;;;;;2264046;61;1582;-88
2024/02/06 08:50:17;145936.00;0.49;252.80;9708.00;0.03;17.44;;;;;9.90;1.00;;;;;;2264122;61;1064;-88
2024/02/06 08:52:44;430167.00;1.43;741.67;32247.00;0.11;56.47;;;;;9.90;1.00;;;;;;2264081;61;1331;-88
2024/02/06 08:55:11;137711.00;0.46;238.62;0.00;0.00;0.62;;;;;9.90;1.00;;;;;;2264073;61;1997;-86
2024/02/06 08:57:39;149607.00;0.50;259.13;2075.00;0.01;4.22;;;;;10.20;1.00;;;;;;2264062;61;1060;-86
2024/02/06 09:00:11;82281.00;0.27;142.98;0.00;0.00;0.62;;;;;10.00;1.00;;;;;;2264175;61;1024;-88
2024/02/06 09:02:38;171522.00;0.57;296.89;0.00;0.00;0.62;;;;;10.10;1.00;;;;;;2264046;61;1331;-87
2024/02/06 09:05:05;142101.00;0.47;246.19;0.00;0.00;0.62;;;;;10.40;1.00;;;;;;2264183;61;914;-87
2024/02/06 09:07:32;69189.00;0.23;120.36;0.00;0.00;0.62;;;;;10.50;1.00;;;;;;2264087;61;1010;-87
2024/02/06 09:09:59;23676.00;0.08;41.64;0.00;0.00;0.62;;;;;10.40;1.00;;;;;;2292292;40;3584;-86
2024/02/06 09:12:26;149945.00;0.50;259.71;0.00;0.00;0.62;;;;;10.50;1.00;;;;;;2272131;61;1281;-86
2024/02/06 09:14:56;81791.00;0.27;142.13;0.00;0.00;0.62;;;;;10.20;1.00;;;;;;2272144;61;954;-87
2024/02/06 09:17:23;55563.00;0.19;96.81;0.00;0.00;0.62;;;;;10.20;1.00;;;;;;2272061;61;2391;-87
2024/02/06 09:19:50;167004.00;0.56;289.11;0.00;0.00;0.62;;;;;10.50;1.00;;;;;;2272113;61;1131;-88
2024/02/06 09:22:17;122203.00;0.41;211.88;0.00;0.00;0.62;;;;;10.50;1.00;;;;;;2272030;61;1271;-87
2024/02/06 09:24:43;124552.00;0.42;215.93;0.00;0.00;0.62;;;;;10.30;1.00;;;;;;2272126;61;1095;-85
2024/02/06 09:27:11;135939.00;0.45;235.57;0.00;0.00;0.62;;;;;10.40;1.00;;;;;;2272109;61;866;-86
2024/02/06 09:29:38;34016.00;0.11;59.53;0.00;0.00;0.62;;;;;10.30;1.00;;;;;;2272105;61;1032;-86
2024/02/06 09:32:06;131810.00;0.44;228.45;0.00;0.00;0.62;;;;;10.30;1.00;;;;;;2271965;61;1597;-87
2024/02/06 09:34:34;5924.00;0.02;10.89;0.00;0.00;0.62;;;;;10.40;1.00;;;;;;2271945;61;1047;-87
2024/02/06 09:37:01;40125.00;0.13;70.10;0.00;0.00;0.62;;;;;10.40;1.00;;;;;;2271928;61;1916;-88
2024/02/06 09:39:28;72803.00;0.24;126.60;0.00;0.00;0.62;;;;;10.50;1.00;;;;;;2271845;61;1407;-88
2024/02/06 09:42:01;26194.00;0.09;45.99;0.00;0.00;0.62;;;;;10.40;1.00;;;;;;2271969;61;1336;-87
2024/02/06 09:44:28;163837.00;0.55;283.65;0.00;0.00;0.62;;;;;10.50;1.00;;;;;;2272080;61;1141;-88
2024/02/06 09:46:59;35184.00;0.12;61.56;0.00;0.00;0.62;;;;;10.50;1.00;;;;;;2271975;61;1090;-87
2024/02/06 09:49:28;36027.00;0.12;63.01;0.00;0.00;0.62;;;;;10.80;1.00;;;;;;2272053;61;1001;-88
2024/02/06 09:51:56;174501.00;0.58;302.02;0.00;0.00;0.62;;;;;10.80;1.00;;;;;;2271853;61;1384;-86
2024/02/06 09:54:25;47314.00;0.16;82.54;0.00;0.00;0.62;;;;;10.80;1.00;;;;;;2271984;61;1597;-88
2024/02/06 09:56:54;50686.00;0.17;88.37;0.00;0.00;0.62;;;;;10.80;1.00;;;;;;2271925;61;1994;-88
2024/02/06 09:59:22;139615.00;0.47;241.91;0.00;0.00;0.62;;;;;10.80;1.00;;;;;;2271911;61;1694;-87
2024/02/06 10:01:52;52309.00;0.17;91.18;0.00;0.00;0.62;;;;;11.00;1.00;;;;;;2271944;61;1374;-86
2024/02/06 10:04:21;36594.00;0.12;64.00;0.00;0.00;0.62;;;;;10.90;1.00;;;;;;2271938;61;1594;-86
2024/02/06 10:06:50;170127.00;0.57;294.49;0.00;0.00;0.62;;;;;10.90;1.00;;;;;;2271976;61;1040;-88
2024/02/06 10:09:19;158606.00;0.53;274.64;53668.00;0.18;93.53;;;;;10.80;1.00;;;;;;2271895;61;1053;-87